sensor_id;sensor_type;location;lat;lon;timestamp;P1;durP1;ratioP1;P2;durP2;ratioP2
16113;SDS011;8161;-33.910;151.156;2023-06-22T00:00:04;16.38;;;7.00;;
16113;SDS011;8161;-33.910;151.156;2023-06-22T00:02:37;16.67;;;8.20;;
16113;SDS011;8161;-33.910;151.156;2023-06-22T00:05:04;14.00;;;7.13;;
16113;SDS011;8161;-33.910;151.156;2023-06-22T00:07:31;12.38;;;6.28;;
16113;SDS011;8161;-33.910;151.156;2023-06-22T00:09:58;14.18;;;6.43;;
16113;SDS011;8161;-33.910;151.156;2023-06-22T00:12:26;10.82;;;5.85;;
16113;SDS011;8161;-33.910;151.156;2023-06-22T00:14:53;10.80;;;5.72;;
16113;SDS011;8161;-33.910;151.156;2023-06-22T00:17:20;11.25;;;5.78;;
16113;SDS011;8161;-33.910;151.156;2023-06-22T00:19:48;11.23;;;5.32;;
16113;SDS011;8161;-33.910;151.156;2023-06-22T00:22:19;10.77;;;4.93;;
16113;SDS011;8161;-33.910;151.156;2023-06-22T00:24:57;9.48;;;4.80;;
16113;SDS011;8161;-33.910;151.156;2023-06-22T00:27:24;8.85;;;4.05;;
16113;SDS011;8161;-33.910;151.156;2023-06-22T00:29:51;10.85;;;4.78;;
16113;SDS011;8161;-33.910;151.156;2023-06-22T00:32:18;11.27;;;4.25;;
16113;SDS011;8161;-33.910;151.156;2023-06-22T00:34:46;8.18;;;4.60;;
16113;SDS011;8161;-33.910;151.156;2023-06-22T00:37:13;7.00;;;4.10;;
16113;SDS011;8161;-33.910;151.156;2023-06-22T00:39:41;8.17;;;4.40;;
16113;SDS011;8161;-33.910;151.156;2023-06-22T00:42:08;8.10;;;4.50;;
16113;SDS011;8161;-33.910;151.156;2023-06-22T00:44:35;8.85;;;4.38;;
16113;SDS011;8161;-33.910;151.156;2023-06-22T00:47:03;9.70;;;4.60;;
16113;SDS011;8161;-33.910;151.156;2023-06-22T00:49:30;11.02;;;4.22;;
16113;SDS011;8161;-33.910;151.156;2023-06-22T00:51:57;11.25;;;4.07;;
16113;SDS011;8161;-33.910;151.156;2023-06-22T00:54:25;10.13;;;4.60;;
16113;SDS011;8161;-33.910;151.156;2023-06-22T00:56:53;9.80;;;4.70;;
16113;SDS011;8161;-33.910;151.156;2023-06-22T00:59:22;9.90;;;4.40;;
16113;SDS011;8161;-33.910;151.156;2023-06-22T01:01:51;11.13;;;4.47;;
16113;SDS011;8161;-33.910;151.156;2023-06-22T01:04:19;8.90;;;4.75;;
16113;SDS011;8161;-33.910;151.156;2023-06-22T01:06:52;11.68;;;4.53;;
16113;SDS011;8161;-33.910;151.156;2023-06-22T01:09:29;8.13;;;4.20;;
16113;SDS011;8161;-33.910;151.156;2023-06-22T01:12:02;10.03;;;4.00;;
16113;SDS011;8161;-33.910;151.156;2023-06-22T01:14:55;7.72;;;4.10;;
16113;SDS011;8161;-33.910;151.156;2023-06-22T01:17:22;14.32;;;6.20;;
16113;SDS011;8161;-33.910;151.156;2023-06-22T01:19:51;8.80;;;4.43;;
16113;SDS011;8161;-33.910;151.156;2023-06-22T01:22:25;7.95;;;4.53;;
16113;SDS011;8161;-33.910;151.156;2023-06-22T01:30:26;6.85;;;3.08;;
16113;SDS011;8161;-33.910;151.156;2023-06-22T01:32:56;5.72;;;3.00;;
16113;SDS011;8161;-33.910;151.156;2023-06-22T01:35:24;6.90;;;3.50;;
16113;SDS011;8161;-33.910;151.156;2023-06-22T01:37:52;9.13;;;3.58;;
16113;SDS011;8161;-33.910;151.156;2023-06-22T01:40:20;8.50;;;4.30;;
16113;SDS011;8161;-33.910;151.156;2023-06-22T01:42:48;6.57;;;3.50;;
16113;SDS011;8161;-33.910;151.156;2023-06-22T01:45:17;7.60;;;3.40;;
16113;SDS011;8161;-33.910;151.156;2023-06-22T01:47:44;8.10;;;3.72;;
16113;SDS011;8161;-33.910;151.156;2023-06-22T01:50:12;6.05;;;3.20;;
16113;SDS011;8161;-33.910;151.156;2023-06-22T01:52:39;5.72;;;2.90;;
16113;SDS011;8161;-33.910;151.156;2023-06-22T01:55:06;5.22;;;2.55;;
16113;SDS011;8161;-33.910;151.156;2023-06-22T01:57:37;6.65;;;2.70;;
16113;SDS011;8161;-33.910;151.156;2023-06-22T02:00:07;5.20;;;2.80;;
16113;SDS011;8161;-33.910;151.156;2023-06-22T02:02:44;7.53;;;3.60;;
16113;SDS011;8161;-33.910;151.156;2023-06-22T02:05:17;6.87;;;3.17;;
16113;SDS011;8161;-33.910;151.156;2023-06-22T02:08:07;5.90;;;2.65;;
16113;SDS011;8161;-33.910;151.156;2023-06-22T02:10:37;6.72;;;3.70;;
16113;SDS011;8161;-33.910;151.156;2023-06-22T02:13:09;8.48;;;3.28;;
16113;SDS011;8161;-33.910;151.156;2023-06-22T02:15:37;5.43;;;3.27;;
16113;SDS011;8161;-33.910;151.156;2023-06-22T02:18:04;8.27;;;3.23;;
16113;SDS011;8161;-33.910;151.156;2023-06-22T02:20:31;4.90;;;2.20;;
16113;SDS011;8161;-33.910;151.156;2023-06-22T02:23:01;4.70;;;1.88;;
16113;SDS011;8161;-33.910;151.156;2023-06-22T02:25:28;10.05;;;3.28;;
16113;SDS011;8161;-33.910;151.156;2023-06-22T02:27:57;7.28;;;2.78;;
16113;SDS011;8161;-33.910;151.156;2023-06-22T02:30:24;8.10;;;3.08;;
16113;SDS011;8161;-33.910;151.156;2023-06-22T02:32:51;6.43;;;2.80;;
16113;SDS011;8161;-33.910;151.156;2023-06-22T02:35:28;6.65;;;3.03;;
16113;SDS011;8161;-33.910;151.156;2023-06-22T02:38:01;8.60;;;3.05;;
16113;SDS011;8161;-33.910;151.156;2023-06-22T02:40:29;6.05;;;3.05;;
16113;SDS011;8161;-33.910;151.156;2023-06-22T02:42:57;6.45;;;2.85;;
16113;SDS011;8161;-33.910;151.156;2023-06-22T02:45:27;5.95;;;2.60;;
16113;SDS011;8161;-33.910;151.156;2023-06-22T02:47:55;3.88;;;2.30;;
16113;SDS011;8161;-33.910;151.156;2023-06-22T02:50:23;7.63;;;2.33;;
16113;SDS011;8161;-33.910;151.156;2023-06-22T02:52:50;8.15;;;2.42;;
16113;SDS011;8161;-33.910;151.156;2023-06-22T02:55:17;8.75;;;2.20;;
16113;SDS011;8161;-33.910;151.156;2023-06-22T02:57:45;8.05;;;1.90;;
16113;SDS011;8161;-33.910;151.156;2023-06-22T03:00:13;5.05;;;2.20;;
16113;SDS011;8161;-33.910;151.156;2023-06-22T03:02:44;5.28;;;2.20;;
16113;SDS011;8161;-33.910;151.156;2023-06-22T03:05:15;6.63;;;2.35;;
16113;SDS011;8161;-33.910;151.156;2023-06-22T03:07:45;5.15;;;2.20;;
16113;SDS011;8161;-33.910;151.156;2023-06-22T03:10:13;7.00;;;2.05;;
16113;SDS011;8161;-33.910;151.156;2023-06-22T03:12:43;6.05;;;2.03;;
16113;SDS011;8161;-33.910;151.156;2023-06-22T03:15:11;9.32;;;2.28;;
16113;SDS011;8161;-33.910;151.156;2023-06-22T03:17:42;5.90;;;2.50;;
16113;SDS011;8161;-33.910;151.156;2023-06-22T03:20:11;3.58;;;1.92;;
16113;SDS011;8161;-33.910;151.156;2023-06-22T03:22:38;4.60;;;2.10;;
16113;SDS011;8161;-33.910;151.156;2023-06-22T03:25:07;5.38;;;2.22;;
16113;SDS011;8161;-33.910;151.156;2023-06-22T03:27:41;6.63;;;1.73;;
16113;SDS011;8161;-33.910;151.156;2023-06-22T03:30:10;4.43;;;1.80;;
16113;SDS011;8161;-33.910;151.156;2023-06-22T03:32:38;4.50;;;1.70;;
16113;SDS011;8161;-33.910;151.156;2023-06-22T03:35:05;3.85;;;2.00;;
16113;SDS011;8161;-33.910;151.156;2023-06-22T03:37:32;5.82;;;2.10;;
16113;SDS011;8161;-33.910;151.156;2023-06-22T03:39:59;3.75;;;1.65;;
16113;SDS011;8161;-33.910;151.156;2023-06-22T03:42:26;4.80;;;1.87;;
16113;SDS011;8161;-33.910;151.156;2023-06-22T03:44:53;4.80;;;1.98;;
16113;SDS011;8161;-33.910;151.156;2023-06-22T03:47:21;6.38;;;2.00;;
16113;SDS011;8161;-33.910;151.156;2023-06-22T03:49:49;7.75;;;2.20;;
16113;SDS011;8161;-33.910;151.156;2023-06-22T03:52:21;5.60;;;2.10;;
16113;SDS011;8161;-33.910;151.156;2023-06-22T03:54:48;6.10;;;2.10;;
16113;SDS011;8161;-33.910;151.156;2023-06-22T03:57:15;5.30;;;1.92;;
16113;SDS011;8161;-33.910;151.156;2023-06-22T03:59:43;4.88;;;2.10;;
16113;SDS011;8161;-33.910;151.156;2023-06-22T04:02:11;7.22;;;2.03;;
16113;SDS011;8161;-33.910;151.156;2023-06-22T04:04:38;4.97;;;1.85;;
16113;SDS011;8161;-33.910;151.156;2023-06-22T04:07:05;5.20;;;2.13;;
16113;SDS011;8161;-33.910;151.156;2023-06-22T04:09:33;6.72;;;2.13;;
16113;SDS011;8161;-33.910;151.156;2023-06-22T04:12:01;6.03;;;2.53;;
16113;SDS011;8161;-33.910;151.156;2023-06-22T04:14:28;8.10;;;2.60;;
16113;SDS011;8161;-33.910;151.156;2023-06-22T04:16:55;10.25;;;2.63;;
16113;SDS011;8161;-33.910;151.156;2023-06-22T04:19:26;7.68;;;2.00;;
16113;SDS011;8161;-33.910;151.156;2023-06-22T04:21:56;6.45;;;2.13;;
16113;SDS011;8161;-33.910;151.156;2023-06-22T04:24:23;5.72;;;1.88;;
16113;SDS011;8161;-33.910;151.156;2023-06-22T04:26:51;3.35;;;1.92;;
16113;SDS011;8161;-33.910;151.156;2023-06-22T04:29:20;12.77;;;2.25;;
16113;SDS011;8161;-33.910;151.156;2023-06-22T04:31:54;5.13;;;2.10;;
16113;SDS011;8161;-33.910;151.156;2023-06-22T04:34:28;7.87;;;2.10;;
16113;SDS011;8161;-33.910;151.156;2023-06-22T04:36:56;6.93;;;2.60;;
16113;SDS011;8161;-33.910;151.156;2023-06-22T04:39:23;5.88;;;2.40;;
16113;SDS011;8161;-33.910;151.156;2023-06-22T04:41:52;6.50;;;2.65;;
16113;SDS011;8161;-33.910;151.156;2023-06-22T04:44:25;8.53;;;2.87;;
16113;SDS011;8161;-33.910;151.156;2023-06-22T04:46:53;6.10;;;2.20;;
16113;SDS011;8161;-33.910;151.156;2023-06-22T04:49:29;6.17;;;1.90;;
16113;SDS011;8161;-33.910;151.156;2023-06-22T04:52:03;5.20;;;2.30;;
16113;SDS011;8161;-33.910;151.156;2023-06-22T04:54:34;6.53;;;2.30;;
16113;SDS011;8161;-33.910;151.156;2023-06-22T04:57:02;5.80;;;2.58;;
16113;SDS011;8161;-33.910;151.156;2023-06-22T04:59:36;5.45;;;2.40;;
16113;SDS011;8161;-33.910;151.156;2023-06-22T05:02:07;8.10;;;2.35;;
16113;SDS011;8161;-33.910;151.156;2023-06-22T05:04:34;5.00;;;1.90;;
16113;SDS011;8161;-33.910;151.156;2023-06-22T05:07:04;7.78;;;2.28;;
16113;SDS011;8161;-33.910;151.156;2023-06-22T05:09:31;6.33;;;2.10;;
16113;SDS011;8161;-33.910;151.156;2023-06-22T05:11:59;11.23;;;1.77;;
16113;SDS011;8161;-33.910;151.156;2023-06-22T05:14:28;8.77;;;2.00;;
16113;SDS011;8161;-33.910;151.156;2023-06-22T05:16:56;5.55;;;1.95;;
16113;SDS011;8161;-33.910;151.156;2023-06-22T05:19:29;4.77;;;1.87;;
16113;SDS011;8161;-33.910;151.156;2023-06-22T05:21:59;6.28;;;2.15;;
16113;SDS011;8161;-33.910;151.156;2023-06-22T05:24:26;4.82;;;1.88;;
16113;SDS011;8161;-33.910;151.156;2023-06-22T05:26:53;5.97;;;2.00;;
16113;SDS011;8161;-33.910;151.156;2023-06-22T05:29:20;7.22;;;2.05;;
16113;SDS011;8161;-33.910;151.156;2023-06-22T05:31:52;5.43;;;2.13;;
16113;SDS011;8161;-33.910;151.156;2023-06-22T05:34:19;4.97;;;2.40;;
16113;SDS011;8161;-33.910;151.156;2023-06-22T05:36:46;5.50;;;2.08;;
16113;SDS011;8161;-33.910;151.156;2023-06-22T05:39:14;7.13;;;2.08;;
16113;SDS011;8161;-33.910;151.156;2023-06-22T05:41:41;4.45;;;2.47;;
16113;SDS011;8161;-33.910;151.156;2023-06-22T05:44:12;4.22;;;2.13;;
16113;SDS011;8161;-33.910;151.156;2023-06-22T05:46:40;5.90;;;2.03;;
16113;SDS011;8161;-33.910;151.156;2023-06-22T05:49:12;5.03;;;1.70;;
16113;SDS011;8161;-33.910;151.156;2023-06-22T05:51:39;9.85;;;2.38;;
16113;SDS011;8161;-33.910;151.156;2023-06-22T05:54:07;5.57;;;2.10;;
16113;SDS011;8161;-33.910;151.156;2023-06-22T05:56:34;6.28;;;2.10;;
16113;SDS011;8161;-33.910;151.156;2023-06-22T05:59:01;7.70;;;2.22;;
16113;SDS011;8161;-33.910;151.156;2023-06-22T06:01:28;7.80;;;2.60;;
16113;SDS011;8161;-33.910;151.156;2023-06-22T06:04:01;10.80;;;3.07;;
16113;SDS011;8161;-33.910;151.156;2023-06-22T06:06:29;6.53;;;2.88;;
16113;SDS011;8161;-33.910;151.156;2023-06-22T06:08:56;8.57;;;2.70;;
16113;SDS011;8161;-33.910;151.156;2023-06-22T06:11:25;6.90;;;2.50;;
16113;SDS011;8161;-33.910;151.156;2023-06-22T06:13:52;10.45;;;3.00;;
16113;SDS011;8161;-33.910;151.156;2023-06-22T06:16:19;8.33;;;2.73;;
16113;SDS011;8161;-33.910;151.156;2023-06-22T06:18:46;9.25;;;2.90;;
16113;SDS011;8161;-33.910;151.156;2023-06-22T06:21:16;8.23;;;3.20;;
16113;SDS011;8161;-33.910;151.156;2023-06-22T06:23:43;10.13;;;4.05;;
16113;SDS011;8161;-33.910;151.156;2023-06-22T06:26:13;11.57;;;4.72;;
16113;SDS011;8161;-33.910;151.156;2023-06-22T06:28:44;14.75;;;5.00;;
16113;SDS011;8161;-33.910;151.156;2023-06-22T06:31:12;14.30;;;4.43;;
16113;SDS011;8161;-33.910;151.156;2023-06-22T06:33:42;12.57;;;4.40;;
16113;SDS011;8161;-33.910;151.156;2023-06-22T06:36:09;15.07;;;4.70;;
16113;SDS011;8161;-33.910;151.156;2023-06-22T06:38:37;9.95;;;4.72;;
16113;SDS011;8161;-33.910;151.156;2023-06-22T06:41:04;13.68;;;4.63;;
16113;SDS011;8161;-33.910;151.156;2023-06-22T06:43:31;11.73;;;4.20;;
16113;SDS011;8161;-33.910;151.156;2023-06-22T06:45:58;10.93;;;4.70;;
16113;SDS011;8161;-33.910;151.156;2023-06-22T06:48:25;10.75;;;4.85;;
16113;SDS011;8161;-33.910;151.156;2023-06-22T06:50:53;10.90;;;4.70;;
16113;SDS011;8161;-33.910;151.156;2023-06-22T06:53:20;12.40;;;4.80;;
16113;SDS011;8161;-33.910;151.156;2023-06-22T06:55:47;12.20;;;5.10;;
16113;SDS011;8161;-33.910;151.156;2023-06-22T06:58:14;11.88;;;5.00;;
16113;SDS011;8161;-33.910;151.156;2023-06-22T07:00:41;11.30;;;4.68;;
16113;SDS011;8161;-33.910;151.156;2023-06-22T07:03:09;11.57;;;5.13;;
16113;SDS011;8161;-33.910;151.156;2023-06-22T07:05:36;12.77;;;4.78;;
16113;SDS011;8161;-33.910;151.156;2023-06-22T07:08:03;14.50;;;5.82;;
16113;SDS011;8161;-33.910;151.156;2023-06-22T07:10:30;12.70;;;5.18;;
16113;SDS011;8161;-33.910;151.156;2023-06-22T07:12:57;10.48;;;5.40;;
16113;SDS011;8161;-33.910;151.156;2023-06-22T07:15:24;13.10;;;5.50;;
16113;SDS011;8161;-33.910;151.156;2023-06-22T07:17:52;12.67;;;5.27;;
16113;SDS011;8161;-33.910;151.156;2023-06-22T07:20:19;10.05;;;4.82;;
16113;SDS011;8161;-33.910;151.156;2023-06-22T07:22:46;12.32;;;5.88;;
16113;SDS011;8161;-33.910;151.156;2023-06-22T07:25:13;14.30;;;5.82;;
16113;SDS011;8161;-33.910;151.156;2023-06-22T07:27:56;16.08;;;5.60;;
16113;SDS011;8161;-33.910;151.156;2023-06-22T07:30:23;10.05;;;4.88;;
16113;SDS011;8161;-33.910;151.156;2023-06-22T07:32:51;13.20;;;5.78;;
16113;SDS011;8161;-33.910;151.156;2023-06-22T07:35:18;12.90;;;5.47;;
16113;SDS011;8161;-33.910;151.156;2023-06-22T07:37:45;16.02;;;7.05;;
16113;SDS011;8161;-33.910;151.156;2023-06-22T07:40:12;12.93;;;6.35;;
16113;SDS011;8161;-33.910;151.156;2023-06-22T07:42:39;16.63;;;7.50;;
16113;SDS011;8161;-33.910;151.156;2023-06-22T07:45:07;13.93;;;7.03;;
16113;SDS011;8161;-33.910;151.156;2023-06-22T07:47:34;16.57;;;7.20;;
16113;SDS011;8161;-33.910;151.156;2023-06-22T07:50:02;18.92;;;7.93;;
16113;SDS011;8161;-33.910;151.156;2023-06-22T07:52:29;16.83;;;8.18;;
16113;SDS011;8161;-33.910;151.156;2023-06-22T07:54:56;21.45;;;8.50;;
16113;SDS011;8161;-33.910;151.156;2023-06-22T07:57:23;19.10;;;8.65;;
16113;SDS011;8161;-33.910;151.156;2023-06-22T08:00:02;15.77;;;8.90;;
16113;SDS011;8161;-33.910;151.156;2023-06-22T08:02:48;19.25;;;8.77;;
16113;SDS011;8161;-33.910;151.156;2023-06-22T08:05:15;19.83;;;9.00;;
16113;SDS011;8161;-33.910;151.156;2023-06-22T08:07:43;15.63;;;8.67;;
16113;SDS011;8161;-33.910;151.156;2023-06-22T08:10:10;22.00;;;10.40;;
16113;SDS011;8161;-33.910;151.156;2023-06-22T08:12:39;19.92;;;9.77;;
16113;SDS011;8161;-33.910;151.156;2023-06-22T08:15:06;16.00;;;8.80;;
16113;SDS011;8161;-33.910;151.156;2023-06-22T08:17:33;16.45;;;8.93;;
16113;SDS011;8161;-33.910;151.156;2023-06-22T08:20:00;18.90;;;9.48;;
16113;SDS011;8161;-33.910;151.156;2023-06-22T08:22:31;18.73;;;12.00;;
16113;SDS011;8161;-33.910;151.156;2023-06-22T08:24:59;21.45;;;10.80;;
16113;SDS011;8161;-33.910;151.156;2023-06-22T08:27:26;20.40;;;10.73;;
16113;SDS011;8161;-33.910;151.156;2023-06-22T08:29:55;20.60;;;10.70;;
16113;SDS011;8161;-33.910;151.156;2023-06-22T08:32:27;19.83;;;10.70;;
16113;SDS011;8161;-33.910;151.156;2023-06-22T08:34:56;18.73;;;10.20;;
16113;SDS011;8161;-33.910;151.156;2023-06-22T08:37:23;17.00;;;9.80;;
16113;SDS011;8161;-33.910;151.156;2023-06-22T08:39:56;17.60;;;8.93;;
16113;SDS011;8161;-33.910;151.156;2023-06-22T08:42:23;15.63;;;8.60;;
16113;SDS011;8161;-33.910;151.156;2023-06-22T08:44:51;17.80;;;8.85;;
16113;SDS011;8161;-33.910;151.156;2023-06-22T08:47:19;18.07;;;8.80;;
16113;SDS011;8161;-33.910;151.156;2023-06-22T08:49:47;17.58;;;8.30;;
16113;SDS011;8161;-33.910;151.156;2023-06-22T08:52:14;17.80;;;8.43;;
16113;SDS011;8161;-33.910;151.156;2023-06-22T08:54:41;18.05;;;8.88;;
16113;SDS011;8161;-33.910;151.156;2023-06-22T08:57:08;14.73;;;7.97;;
16113;SDS011;8161;-33.910;151.156;2023-06-22T08:59:36;14.33;;;7.47;;
16113;SDS011;8161;-33.910;151.156;2023-06-22T09:02:03;18.02;;;7.60;;
16113;SDS011;8161;-33.910;151.156;2023-06-22T09:04:30;15.43;;;7.55;;
16113;SDS011;8161;-33.910;151.156;2023-06-22T09:07:03;18.13;;;7.82;;
16113;SDS011;8161;-33.910;151.156;2023-06-22T09:09:30;14.55;;;7.63;;
16113;SDS011;8161;-33.910;151.156;2023-06-22T09:12:00;15.77;;;7.22;;
16113;SDS011;8161;-33.910;151.156;2023-06-22T09:14:27;14.13;;;7.70;;
16113;SDS011;8161;-33.910;151.156;2023-06-22T09:16:54;14.07;;;7.40;;
16113;SDS011;8161;-33.910;151.156;2023-06-22T09:19:21;20.50;;;9.40;;
16113;SDS011;8161;-33.910;151.156;2023-06-22T09:21:48;17.10;;;8.20;;
16113;SDS011;8161;-33.910;151.156;2023-06-22T09:24:15;19.00;;;8.80;;
16113;SDS011;8161;-33.910;151.156;2023-06-22T09:26:42;17.33;;;9.10;;
16113;SDS011;8161;-33.910;151.156;2023-06-22T09:29:09;18.42;;;8.40;;
16113;SDS011;8161;-33.910;151.156;2023-06-22T09:31:37;17.77;;;8.90;;
16113;SDS011;8161;-33.910;151.156;2023-06-22T09:34:04;20.00;;;8.68;;
16113;SDS011;8161;-33.910;151.156;2023-06-22T09:36:31;14.73;;;7.97;;
16113;SDS011;8161;-33.910;151.156;2023-06-22T09:38:58;17.25;;;9.02;;
16113;SDS011;8161;-33.910;151.156;2023-06-22T09:41:31;17.98;;;9.10;;
16113;SDS011;8161;-33.910;151.156;2023-06-22T09:43:58;17.00;;;8.23;;
16113;SDS011;8161;-33.910;151.156;2023-06-22T09:46:25;17.08;;;9.20;;
16113;SDS011;8161;-33.910;151.156;2023-06-22T09:48:53;18.52;;;10.40;;
16113;SDS011;8161;-33.910;151.156;2023-06-22T09:51:20;22.33;;;12.35;;
16113;SDS011;8161;-33.910;151.156;2023-06-22T09:53:49;18.63;;;11.50;;
16113;SDS011;8161;-33.910;151.156;2023-06-22T09:56:17;17.75;;;10.30;;
16113;SDS011;8161;-33.910;151.156;2023-06-22T09:58:44;15.20;;;8.35;;
16113;SDS011;8161;-33.910;151.156;2023-06-22T10:01:12;18.95;;;8.50;;
16113;SDS011;8161;-33.910;151.156;2023-06-22T10:03:45;21.98;;;9.25;;
16113;SDS011;8161;-33.910;151.156;2023-06-22T10:06:13;20.60;;;10.57;;
16113;SDS011;8161;-33.910;151.156;2023-06-22T10:08:40;21.33;;;11.00;;
16113;SDS011;8161;-33.910;151.156;2023-06-22T10:11:07;22.83;;;11.35;;
16113;SDS011;8161;-33.910;151.156;2023-06-22T10:13:34;16.67;;;9.10;;
16113;SDS011;8161;-33.910;151.156;2023-06-22T10:16:05;18.52;;;9.20;;
16113;SDS011;8161;-33.910;151.156;2023-06-22T10:18:32;20.58;;;9.52;;
16113;SDS011;8161;-33.910;151.156;2023-06-22T10:21:00;16.65;;;8.68;;
16113;SDS011;8161;-33.910;151.156;2023-06-22T10:23:27;20.00;;;8.60;;
16113;SDS011;8161;-33.910;151.156;2023-06-22T10:25:54;21.52;;;8.80;;
16113;SDS011;8161;-33.910;151.156;2023-06-22T10:28:25;16.83;;;8.52;;
16113;SDS011;8161;-33.910;151.156;2023-06-22T10:30:52;19.05;;;8.30;;
16113;SDS011;8161;-33.910;151.156;2023-06-22T10:33:19;19.35;;;8.93;;
16113;SDS011;8161;-33.910;151.156;2023-06-22T10:35:46;17.25;;;8.40;;
16113;SDS011;8161;-33.910;151.156;2023-06-22T10:38:13;16.90;;;8.05;;
16113;SDS011;8161;-33.910;151.156;2023-06-22T10:40:40;18.77;;;8.68;;
16113;SDS011;8161;-33.910;151.156;2023-06-22T10:43:07;22.35;;;9.65;;
16113;SDS011;8161;-33.910;151.156;2023-06-22T10:45:34;19.92;;;9.38;;
16113;SDS011;8161;-33.910;151.156;2023-06-22T10:48:02;18.77;;;9.27;;
16113;SDS011;8161;-33.910;151.156;2023-06-22T10:50:29;19.03;;;8.63;;
16113;SDS011;8161;-33.910;151.156;2023-06-22T10:52:56;18.03;;;8.73;;
16113;SDS011;8161;-33.910;151.156;2023-06-22T10:55:23;16.75;;;9.07;;
16113;SDS011;8161;-33.910;151.156;2023-06-22T10:57:50;14.20;;;8.68;;
16113;SDS011;8161;-33.910;151.156;2023-06-22T11:00:17;20.70;;;9.35;;
16113;SDS011;8161;-33.910;151.156;2023-06-22T11:02:44;19.73;;;10.13;;
16113;SDS011;8161;-33.910;151.156;2023-06-22T11:05:12;22.00;;;10.30;;
16113;SDS011;8161;-33.910;151.156;2023-06-22T11:07:42;19.07;;;9.97;;
16113;SDS011;8161;-33.910;151.156;2023-06-22T11:10:10;18.17;;;9.55;;
16113;SDS011;8161;-33.910;151.156;2023-06-22T11:12:38;17.45;;;9.70;;
16113;SDS011;8161;-33.910;151.156;2023-06-22T11:15:06;15.23;;;8.90;;
16113;SDS011;8161;-33.910;151.156;2023-06-22T11:17:33;16.77;;;8.82;;
16113;SDS011;8161;-33.910;151.156;2023-06-22T11:20:00;14.90;;;8.13;;
16113;SDS011;8161;-33.910;151.156;2023-06-22T11:22:31;14.35;;;8.38;;
16113;SDS011;8161;-33.910;151.156;2023-06-22T11:24:59;15.25;;;8.10;;
16113;SDS011;8161;-33.910;151.156;2023-06-22T11:27:26;15.95;;;7.85;;
16113;SDS011;8161;-33.910;151.156;2023-06-22T11:29:53;15.90;;;8.60;;
16113;SDS011;8161;-33.910;151.156;2023-06-22T11:32:20;16.07;;;8.17;;
16113;SDS011;8161;-33.910;151.156;2023-06-22T11:34:47;15.33;;;8.60;;
16113;SDS011;8161;-33.910;151.156;2023-06-22T11:37:17;14.65;;;8.52;;
16113;SDS011;8161;-33.910;151.156;2023-06-22T11:39:44;17.30;;;8.98;;
16113;SDS011;8161;-33.910;151.156;2023-06-22T11:42:11;20.08;;;8.60;;
16113;SDS011;8161;-33.910;151.156;2023-06-22T11:44:38;14.32;;;8.65;;
16113;SDS011;8161;-33.910;151.156;2023-06-22T11:47:06;14.23;;;8.30;;
16113;SDS011;8161;-33.910;151.156;2023-06-22T11:49:33;18.90;;;8.45;;
16113;SDS011;8161;-33.910;151.156;2023-06-22T11:52:00;12.57;;;8.48;;
16113;SDS011;8161;-33.910;151.156;2023-06-22T11:54:27;14.50;;;8.90;;
16113;SDS011;8161;-33.910;151.156;2023-06-22T11:56:54;15.60;;;8.77;;
16113;SDS011;8161;-33.910;151.156;2023-06-22T11:59:21;15.40;;;9.33;;
16113;SDS011;8161;-33.910;151.156;2023-06-22T12:01:48;15.80;;;9.30;;
16113;SDS011;8161;-33.910;151.156;2023-06-22T12:04:18;15.00;;;8.75;;
16113;SDS011;8161;-33.910;151.156;2023-06-22T12:06:45;12.93;;;8.25;;
16113;SDS011;8161;-33.910;151.156;2023-06-22T12:09:13;13.73;;;8.27;;
16113;SDS011;8161;-33.910;151.156;2023-06-22T12:11:40;11.50;;;7.45;;
16113;SDS011;8161;-33.910;151.156;2023-06-22T12:14:07;14.45;;;7.65;;
16113;SDS011;8161;-33.910;151.156;2023-06-22T12:16:35;15.45;;;7.90;;
16113;SDS011;8161;-33.910;151.156;2023-06-22T12:19:02;14.70;;;8.32;;
16113;SDS011;8161;-33.910;151.156;2023-06-22T12:21:29;14.18;;;8.60;;
16113;SDS011;8161;-33.910;151.156;2023-06-22T12:23:56;14.52;;;8.70;;
16113;SDS011;8161;-33.910;151.156;2023-06-22T12:26:23;15.23;;;9.00;;
16113;SDS011;8161;-33.910;151.156;2023-06-22T12:28:50;15.73;;;8.85;;
16113;SDS011;8161;-33.910;151.156;2023-06-22T12:31:17;15.67;;;9.43;;
16113;SDS011;8161;-33.910;151.156;2023-06-22T12:33:47;14.18;;;9.32;;
16113;SDS011;8161;-33.910;151.156;2023-06-22T12:36:14;18.35;;;9.48;;
16113;SDS011;8161;-33.910;151.156;2023-06-22T12:38:42;16.10;;;9.10;;
16113;SDS011;8161;-33.910;151.156;2023-06-22T12:41:09;15.73;;;9.27;;
16113;SDS011;8161;-33.910;151.156;2023-06-22T12:43:36;14.23;;;8.57;;
16113;SDS011;8161;-33.910;151.156;2023-06-22T12:46:03;20.75;;;9.60;;
16113;SDS011;8161;-33.910;151.156;2023-06-22T12:48:30;18.73;;;9.20;;
16113;SDS011;8161;-33.910;151.156;2023-06-22T12:50:57;15.73;;;9.05;;
16113;SDS011;8161;-33.910;151.156;2023-06-22T12:53:24;14.15;;;8.30;;
16113;SDS011;8161;-33.910;151.156;2023-06-22T12:55:52;14.82;;;8.05;;
16113;SDS011;8161;-33.910;151.156;2023-06-22T12:58:20;16.00;;;7.93;;
16113;SDS011;8161;-33.910;151.156;2023-06-22T13:00:47;12.15;;;7.97;;
16113;SDS011;8161;-33.910;151.156;2023-06-22T13:03:14;13.85;;;7.45;;
16113;SDS011;8161;-33.910;151.156;2023-06-22T13:05:41;12.40;;;7.25;;
16113;SDS011;8161;-33.910;151.156;2023-06-22T13:08:08;14.85;;;7.38;;
16113;SDS011;8161;-33.910;151.156;2023-06-22T13:10:36;11.40;;;6.60;;
16113;SDS011;8161;-33.910;151.156;2023-06-22T13:13:03;13.80;;;7.25;;
16113;SDS011;8161;-33.910;151.156;2023-06-22T13:15:30;14.32;;;7.57;;
16113;SDS011;8161;-33.910;151.156;2023-06-22T13:17:57;15.63;;;7.60;;
16113;SDS011;8161;-33.910;151.156;2023-06-22T13:20:24;14.70;;;7.63;;
16113;SDS011;8161;-33.910;151.156;2023-06-22T13:22:51;12.93;;;7.47;;
16113;SDS011;8161;-33.910;151.156;2023-06-22T13:25:19;14.05;;;7.05;;
16113;SDS011;8161;-33.910;151.156;2023-06-22T13:27:49;12.60;;;7.00;;
16113;SDS011;8161;-33.910;151.156;2023-06-22T13:30:16;12.95;;;7.72;;
16113;SDS011;8161;-33.910;151.156;2023-06-22T13:32:43;14.82;;;8.35;;
16113;SDS011;8161;-33.910;151.156;2023-06-22T13:35:11;12.63;;;7.50;;
16113;SDS011;8161;-33.910;151.156;2023-06-22T13:37:38;12.95;;;7.80;;
16113;SDS011;8161;-33.910;151.156;2023-06-22T13:40:06;14.90;;;7.47;;
16113;SDS011;8161;-33.910;151.156;2023-06-22T13:42:33;13.35;;;7.78;;
16113;SDS011;8161;-33.910;151.156;2023-06-22T13:45:00;15.10;;;7.82;;
16113;SDS011;8161;-33.910;151.156;2023-06-22T13:47:28;11.27;;;7.40;;
16113;SDS011;8161;-33.910;151.156;2023-06-22T13:49:56;13.60;;;7.53;;
16113;SDS011;8161;-33.910;151.156;2023-06-22T13:52:26;13.73;;;7.80;;
16113;SDS011;8161;-33.910;151.156;2023-06-22T13:54:56;13.20;;;8.10;;
16113;SDS011;8161;-33.910;151.156;2023-06-22T13:57:23;12.00;;;8.05;;
16113;SDS011;8161;-33.910;151.156;2023-06-22T13:59:53;11.45;;;8.35;;
16113;SDS011;8161;-33.910;151.156;2023-06-22T14:02:20;14.03;;;8.03;;
16113;SDS011;8161;-33.910;151.156;2023-06-22T14:04:47;13.35;;;8.07;;
16113;SDS011;8161;-33.910;151.156;2023-06-22T14:07:14;11.32;;;7.68;;
16113;SDS011;8161;-33.910;151.156;2023-06-22T14:09:42;11.02;;;7.00;;
16113;SDS011;8161;-33.910;151.156;2023-06-22T14:12:09;11.38;;;7.20;;
16113;SDS011;8161;-33.910;151.156;2023-06-22T14:14:37;12.48;;;6.75;;
16113;SDS011;8161;-33.910;151.156;2023-06-22T14:17:04;12.37;;;6.53;;
16113;SDS011;8161;-33.910;151.156;2023-06-22T14:19:34;10.48;;;6.20;;
16113;SDS011;8161;-33.910;151.156;2023-06-22T14:22:02;10.60;;;6.40;;
16113;SDS011;8161;-33.910;151.156;2023-06-22T14:24:29;8.20;;;5.53;;